Time;durP1;ratioP1;P1;durP2;ratioP2;P2;SDS_P1;SDS_P2;PMS_P1;PMS_P2;Temp;Humidity;BMP_temperature;BMP_pressure;BME280_temperature;BME280_humidity;BME280_pressure;Samples;Min_cycle;Max_cycle;Signal;HPM_P1;HPM_P2
2022/04/06 00:00:24;;;;;;;;;;;10.90;99.90;;;;;;4977059;28;19926;-87
2022/04/06 00:02:51;;;;;;;;;;;11.10;99.90;;;;;;4976430;28;19929;-86
2022/04/06 00:05:18;;;;;;;;;;;10.70;99.90;;;;;;4976773;28;19926;-88
2022/04/06 00:07:46;;;;;;;;;;;11.00;99.90;;;;;;4976767;28;19988;-87
2022/04/06 00:10:13;;;;;;;;;;;10.70;99.90;;;;;;4976585;28;19926;-86
2022/04/06 00:12:41;;;;;;;;;;;10.60;99.90;;;;;;4976011;28;19930;-86
2022/04/06 00:15:09;;;;;;;;;;;10.60;99.90;;;;;;4976568;28;19927;-87
2022/04/06 00:17:37;;;;;;;;;;;10.60;99.90;;;;;;4976205;28;20451;-87
2022/04/06 00:20:05;;;;;;;;;;;10.60;99.90;;;;;;4976499;28;19988;-87
2022/04/06 00:22:32;;;;;;;;;;;10.70;99.90;;;;;;4975931;28;19933;-87
2022/04/06 00:25:00;;;;;;;;;;;10.40;99.90;;;;;;4976264;28;19954;-87
2022/04/06 00:27:27;;;;;;;;;;;10.40;99.90;;;;;;4957988;28;19962;-86
2022/04/06 00:29:53;;;;;;;;;;;9.90;99.90;;;;;;4956608;29;19926;-86
2022/04/06 00:32:21;;;;;;;;;;;10.30;99.90;;;;;;4974578;28;20811;-87
2022/04/06 00:37:32;;;;;;;;;;;10.10;99.90;;;;;;4975585;28;19933;-86
2022/04/06 00:40:00;;;;;;;;;;;10.30;99.90;;;;;;4975816;28;19997;-86
2022/04/06 00:42:27;;;;;;;;;;;9.60;99.90;;;;;;4978214;28;19953;-86
2022/04/06 00:44:53;;;;;;;;;;;10.30;99.90;;;;;;4980421;28;19934;-85
2022/04/06 00:47:20;;;;;;;;;;;10.20;99.90;;;;;;4980623;28;19979;-84
2022/04/06 00:49:47;;;;;;;;;;;10.20;99.90;;;;;;4980625;28;20288;-85
2022/04/06 00:52:14;;;;;;;;;;;10.20;99.90;;;;;;4975764;28;19926;-86
2022/04/06 00:54:41;;;;;;;;;;;10.20;99.90;;;;;;4975649;28;20431;-86
2022/04/06 00:57:10;;;;;;;;;;;10.10;99.90;;;;;;4975176;28;20376;-87
2022/04/06 00:59:37;;;;;;;;;;;10.10;99.90;;;;;;4974875;28;19981;-86
2022/04/06 01:02:05;;;;;;;;;;;10.10;99.90;;;;;;4975019;28;20474;-86
2022/04/06 01:04:33;;;;;;;;;;;10.10;99.90;;;;;;4975087;28;19926;-85
2022/04/06 01:07:00;;;;;;;;;;;10.20;99.90;;;;;;4974924;28;19973;-86
2022/04/06 01:09:28;;;;;;;;;;;10.20;99.90;;;;;;4974969;28;19926;-86
2022/04/06 01:11:56;;;;;;;;;;;10.80;99.90;;;;;;4975076;28;19926;-86
2022/04/06 01:14:24;;;;;;;;;;;10.10;99.90;;;;;;4975240;28;20345;-86
2022/04/06 01:16:58;;;;;;;;;;;10.10;99.90;;;;;;4975030;28;19934;-84
2022/04/06 01:19:30;;;;;;;;;;;10.10;99.90;;;;;;4974853;28;19933;-85
2022/04/06 01:21:56;;;;;;;;;;;10.10;99.90;;;;;;4974588;28;19926;-87
2022/04/06 01:24:25;;;;;;;;;;;10.20;99.90;;;;;;4974793;28;19926;-86
2022/04/06 01:26:52;;;;;;;;;;;10.10;99.90;;;;;;4975400;28;19930;-85
2022/04/06 01:29:18;;;;;;;;;;;10.20;99.90;;;;;;4975383;28;20028;-87
2022/04/06 01:31:45;;;;;;;;;;;10.20;99.90;;;;;;4974883;28;20034;-86
2022/04/06 01:34:12;;;;;;;;;;;10.20;99.90;;;;;;4974978;28;19930;-85
2022/04/06 01:36:39;;;;;;;;;;;10.10;99.90;;;;;;4975357;28;19989;-86
2022/04/06 01:39:06;;;;;;;;;;;10.10;99.90;;;;;;4975516;28;19996;-86
2022/04/06 01:41:35;;;;;;;;;;;10.00;99.90;;;;;;4975218;28;19930;-85
2022/04/06 01:44:01;;;;;;;;;;;10.10;99.90;;;;;;4975148;28;19926;-86
2022/04/06 01:46:28;;;;;;;;;;;9.40;99.90;;;;;;4964742;28;19933;-86
2022/04/06 01:54:23;;;;;;;;;;;10.10;99.90;;;;;;4972406;28;20390;-86
2022/04/06 01:56:53;;;;;;;;;;;10.10;99.90;;;;;;4955650;29;20519;-85
2022/04/06 01:59:20;;;;;;;;;;;10.10;99.90;;;;;;4956134;29;19926;-85
2022/04/06 02:01:48;;;;;;;;;;;10.00;99.90;;;;;;4955867;29;19927;-85
2022/04/06 02:04:16;;;;;;;;;;;10.00;99.90;;;;;;4968469;28;19926;-87
2022/04/06 02:06:43;;;;;;;;;;;10.10;99.90;;;;;;4975070;28;19933;-85
2022/04/06 02:09:11;;;;;;;;;;;10.00;99.90;;;;;;4974640;28;20396;-86
2022/04/06 02:11:38;;;;;;;;;;;10.00;99.90;;;;;;4974515;28;19938;-84
2022/04/06 02:14:06;;;;;;;;;;;10.00;99.90;;;;;;4975202;28;19957;-86
2022/04/06 02:16:35;;;;;;;;;;;10.10;99.90;;;;;;4975143;28;20303;-87
2022/04/06 02:19:02;;;;;;;;;;;10.00;99.90;;;;;;4975134;28;19926;-86
2022/04/06 02:21:29;;;;;;;;;;;11.00;99.90;;;;;;4969327;28;20431;-86
2022/04/06 02:23:55;;;;;;;;;;;10.20;99.90;;;;;;4974655;28;19932;-87
2022/04/06 02:26:22;;;;;;;;;;;10.00;99.90;;;;;;4974936;28;19933;-86
2022/04/06 02:28:49;;;;;;;;;;;9.50;99.90;;;;;;4974606;28;19981;-85
2022/04/06 02:31:17;;;;;;;;;;;9.90;99.90;;;;;;4974927;28;19926;-86
2022/04/06 02:33:44;;;;;;;;;;;9.80;99.90;;;;;;4974830;28;19927;-86
2022/04/06 02:36:11;;;;;;;;;;;9.90;99.90;;;;;;4974881;28;19966;-86
2022/04/06 02:38:38;;;;;;;;;;;9.90;99.90;;;;;;4973986;28;19954;-85
2022/04/06 02:41:06;;;;;;;;;;;9.80;99.90;;;;;;4974767;28;19926;-85
2022/04/06 02:43:32;;;;;;;;;;;9.80;99.90;;;;;;4975651;28;19926;-86
2022/04/06 02:45:59;;;;;;;;;;;9.70;99.90;;;;;;4977920;28;19959;-85
2022/04/06 02:48:27;;;;;;;;;;;9.70;99.90;;;;;;4978946;28;19972;-85
2022/04/06 02:50:54;;;;;;;;;;;9.10;99.90;;;;;;4979182;28;19957;-84
2022/04/06 02:53:21;;;;;;;;;;;9.70;99.90;;;;;;4975870;28;20046;-87
2022/04/06 02:55:48;;;;;;;;;;;9.70;99.90;;;;;;4959059;28;19966;-85
2022/04/06 02:58:15;;;;;;;;;;;9.60;99.90;;;;;;4955189;28;20431;-86
2022/04/06 03:00:42;;;;;;;;;;;9.50;99.90;;;;;;4971551;28;19927;-85
2022/04/06 03:03:09;;;;;;;;;;;9.40;99.90;;;;;;4974397;28;20451;-85
2022/04/06 03:05:39;;;;;;;;;;;9.50;99.90;;;;;;4974599;28;19927;-86
2022/04/06 03:08:06;;;;;;;;;;;9.30;99.90;;;;;;4974682;28;19926;-86
2022/04/06 03:10:33;;;;;;;;;;;9.40;99.90;;;;;;4973916;28;20388;-85
2022/04/06 03:13:00;;;;;;;;;;;8.70;99.90;;;;;;4974201;28;19933;-86
2022/04/06 03:15:27;;;;;;;;;;;9.40;99.90;;;;;;4974478;28;19953;-87
2022/04/06 03:17:53;;;;;;;;;;;9.40;99.90;;;;;;4974602;28;19930;-86
2022/04/06 03:20:20;;;;;;;;;;;9.50;99.90;;;;;;4974004;28;19981;-85
2022/04/06 03:22:48;;;;;;;;;;;9.20;99.90;;;;;;4977164;28;19926;-86
2022/04/06 03:25:15;;;;;;;;;;;9.60;99.90;;;;;;4960331;28;20315;-85
2022/04/06 03:27:42;;;;;;;;;;;9.60;99.90;;;;;;4977335;28;19926;-86
2022/04/06 03:30:11;;;;;;;;;;;9.80;99.90;;;;;;4977588;28;19926;-86
2022/04/06 03:32:38;;;;;;;;;;;9.70;99.90;;;;;;4977419;28;19930;-85
2022/04/06 03:35:05;;;;;;;;;;;10.20;99.90;;;;;;4976968;28;19926;-86
2022/04/06 03:37:35;;;;;;;;;;;9.80;99.90;;;;;;4976585;28;19930;-87
2022/04/06 03:40:07;;;;;;;;;;;9.80;99.90;;;;;;4976693;28;19981;-86
2022/04/06 03:42:34;;;;;;;;;;;9.70;99.90;;;;;;4976620;28;20013;-86
2022/04/06 03:45:00;;;;;;;;;;;9.80;99.90;;;;;;4977189;28;20364;-86
2022/04/06 03:47:30;;;;;;;;;;;9.80;99.90;;;;;;4977472;28;19930;-86
2022/04/06 03:49:57;;;;;;;;;;;9.80;99.90;;;;;;4977095;28;20042;-86
2022/04/06 03:52:25;;;;;;;;;;;9.90;99.90;;;;;;4977448;28;19926;-85
2022/04/06 03:54:52;;;;;;;;;;;9.90;99.90;;;;;;4976890;28;20042;-87
2022/04/06 03:57:20;;;;;;;;;;;10.00;99.90;;;;;;4977392;28;19969;-87
2022/04/06 03:59:47;;;;;;;;;;;9.90;99.90;;;;;;4976942;28;19926;-85
2022/04/06 04:02:14;;;;;;;;;;;9.90;99.90;;;;;;4977128;28;19969;-86
2022/04/06 04:04:41;;;;;;;;;;;9.80;99.90;;;;;;4977471;28;20384;-86
2022/04/06 04:07:07;;;;;;;;;;;10.00;99.90;;;;;;4976921;28;19973;-86
2022/04/06 04:09:34;;;;;;;;;;;10.00;99.90;;;;;;4976748;28;19926;-86
2022/04/06 04:12:02;;;;;;;;;;;9.90;99.90;;;;;;4976915;28;20393;-87
2022/04/06 04:14:32;;;;;;;;;;;10.00;99.90;;;;;;4976751;28;19926;-87
2022/04/06 04:16:58;;;;;;;;;;;9.90;99.90;;;;;;4959528;28;20447;-86
2022/04/06 04:19:25;;;;;;;;;;;10.00;99.90;;;;;;4976720;28;20448;-86
2022/04/06 04:21:52;;;;;;;;;;;9.90;99.90;;;;;;4976567;28;19973;-86
2022/04/06 04:24:19;;;;;;;;;;;10.00;99.90;;;;;;4977046;28;19938;-87
2022/04/06 04:26:46;;;;;;;;;;;10.00;99.90;;;;;;4959544;28;19977;-86
2022/04/06 04:29:12;;;;;;;;;;;10.00;99.90;;;;;;4976604;28;20427;-87
2022/04/06 04:31:40;;;;;;;;;;;10.00;99.90;;;;;;4976770;28;19971;-87
2022/04/06 04:34:07;;;;;;;;;;;9.30;99.90;;;;;;4976392;28;19926;-87
2022/04/06 04:36:34;;;;;;;;;;;10.00;99.90;;;;;;4976632;28;19926;-87
2022/04/06 04:39:02;;;;;;;;;;;10.00;99.90;;;;;;4976265;28;19930;-87
2022/04/06 04:41:29;;;;;;;;;;;9.90;99.90;;;;;;4976969;28;19973;-86
2022/04/06 04:43:56;;;;;;;;;;;10.20;99.90;;;;;;4959670;28;20308;-86
2022/04/06 04:46:23;;;;;;;;;;;10.10;99.90;;;;;;4978649;28;19926;-87
2022/04/06 04:48:51;;;;;;;;;;;9.50;99.90;;;;;;4980661;28;19933;-86
2022/04/06 04:51:18;;;;;;;;;;;10.10;99.90;;;;;;4961425;29;19950;-86
2022/04/06 04:53:46;;;;;;;;;;;10.10;99.90;;;;;;4960778;29;19926;-87
2022/04/06 04:56:12;;;;;;;;;;;11.40;99.90;;;;;;4957347;29;19926;-86
2022/04/06 04:58:39;;;;;;;;;;;10.00;99.90;;;;;;4956967;29;19970;-86
2022/04/06 05:01:07;;;;;;;;;;;10.10;99.90;;;;;;4973269;28;19926;-86
2022/04/06 05:03:34;;;;;;;;;;;10.00;99.90;;;;;;4976185;28;20312;-86
2022/04/06 05:06:02;;;;;;;;;;;10.00;99.90;;;;;;4976357;28;19973;-87
2022/04/06 05:08:29;;;;;;;;;;;10.00;99.90;;;;;;4975813;28;19981;-86
2022/04/06 05:10:56;;;;;;;;;;;10.00;99.90;;;;;;4975528;28;20005;-86
2022/04/06 05:13:22;;;;;;;;;;;10.00;99.90;;;;;;4975586;28;19957;-86
2022/04/06 05:15:49;;;;;;;;;;;10.00;99.90;;;;;;4975957;28;19926;-86
2022/04/06 05:18:16;;;;;;;;;;;9.90;99.90;;;;;;4975292;28;19926;-87
2022/04/06 05:20:43;;;;;;;;;;;10.50;99.90;;;;;;4975686;28;19926;-87
2022/04/06 05:23:11;;;;;;;;;;;9.90;99.90;;;;;;4975712;28;20265;-87
2022/04/06 05:25:38;;;;;;;;;;;10.10;99.90;;;;;;4975559;28;20372;-87
2022/04/06 05:28:05;;;;;;;;;;;9.80;99.90;;;;;;4975182;28;19932;-87
2022/04/06 05:30:33;;;;;;;;;;;9.80;99.90;;;;;;4975648;28;20380;-87
2022/04/06 05:33:00;;;;;;;;;;;9.10;99.90;;;;;;4975486;28;19948;-86
2022/04/06 05:35:30;;;;;;;;;;;9.80;99.90;;;;;;4975713;28;19980;-86
2022/04/06 05:37:57;;;;;;;;;;;9.70;99.90;;;;;;4975052;28;19933;-87
2022/04/06 05:40:25;;;;;;;;;;;9.70;99.90;;;;;;4975374;28;19926;-86
2022/04/06 05:42:52;;;;;;;;;;;9.70;99.90;;;;;;4975501;28;19930;-86
2022/04/06 05:45:19;;;;;;;;;;;9.70;99.90;;;;;;4974647;28;19969;-86
2022/04/06 05:47:46;;;;;;;;;;;9.70;99.90;;;;;;4974417;28;20308;-85
2022/04/06 05:50:16;;;;;;;;;;;9.70;99.90;;;;;;4974933;28;19930;-86
2022/04/06 05:52:43;;;;;;;;;;;9.80;99.90;;;;;;4975387;28;19973;-86
2022/04/06 05:55:10;;;;;;;;;;;9.70;99.90;;;;;;4964368;28;19950;-87
2022/04/06 05:57:38;;;;;;;;;;;10.20;99.90;;;;;;4963118;28;19926;-86
2022/04/06 06:00:08;;;;;;;;;;;9.60;99.90;;;;;;4974805;28;19973;-87
2022/04/06 06:02:35;;;;;;;;;;;9.60;99.90;;;;;;4975020;28;19926;-86
2022/04/06 06:05:03;;;;;;;;;;;9.60;99.90;;;;;;4975031;28;19930;-87
2022/04/06 06:07:30;;;;;;;;;;;9.60;99.90;;;;;;4957336;28;19973;-85
2022/04/06 06:09:57;;;;;;;;;;;9.70;99.90;;;;;;4975577;28;19981;-86
2022/04/06 06:12:24;;;;;;;;;;;9.70;99.90;;;;;;4975307;28;19926;-86
2022/04/06 06:14:52;;;;;;;;;;;9.70;99.90;;;;;;4975143;28;19957;-86
2022/04/06 06:17:25;;;;;;;;;;;9.40;99.90;;;;;;4975035;28;19980;-88
2022/04/06 06:19:55;;;;;;;;;;;9.30;99.90;;;;;;4974751;28;19933;-86
2022/04/06 06:22:21;;;;;;;;;;;9.50;99.90;;;;;;4974922;28;19981;-86
2022/04/06 06:24:48;;;;;;;;;;;9.70;99.90;;;;;;4975208;28;19950;-86
2022/04/06 06:27:19;;;;;;;;;;;9.60;99.90;;;;;;4974688;28;20257;-86
2022/04/06 06:29:47;;;;;;;;;;;9.70;99.90;;;;;;4974819;28;19997;-86
2022/04/06 06:32:15;;;;;;;;;;;9.70;99.90;;;;;;4974177;28;20328;-86
2022/04/06 06:34:45;;;;;;;;;;;9.70;99.90;;;;;;4975377;28;20300;-87
2022/04/06 06:37:12;;;;;;;;;;;9.70;99.90;;;;;;4973837;28;20028;-86
2022/04/06 06:39:39;;;;;;;;;;;9.80;99.90;;;;;;4975714;28;20008;-86
2022/04/06 06:42:06;;;;;;;;;;;9.80;99.90;;;;;;4974423;28;19995;-87
2022/04/06 06:44:33;;;;;;;;;;;10.10;99.90;;;;;;4974955;28;19926;-87
2022/04/06 06:47:00;;;;;;;;;;;10.00;99.90;;;;;;4975145;28;19930;-87
2022/04/06 06:49:28;;;;;;;;;;;10.00;99.90;;;;;;4976507;28;19926;-86
2022/04/06 06:51:55;;;;;;;;;;;10.10;99.90;;;;;;4977272;28;20372;-87
2022/04/06 06:54:22;;;;;;;;;;;10.00;99.90;;;;;;4976563;28;20376;-88
2022/04/06 06:56:48;;;;;;;;;;;10.00;99.90;;;;;;4979688;28;20226;-86
2022/04/06 06:59:15;;;;;;;;;;;9.90;99.90;;;;;;4978845;28;20363;-86
2022/04/06 07:01:42;;;;;;;;;;;10.90;99.90;;;;;;4978357;28;19930;-87
2022/04/06 07:04:09;;;;;;;;;;;9.90;99.90;;;;;;4979592;28;19930;-86
2022/04/06 07:06:40;;;;;;;;;;;9.20;99.90;;;;;;4979448;28;19988;-87
2022/04/06 07:09:06;;;;;;;;;;;9.90;99.90;;;;;;4979371;28;19926;-87
2022/04/06 07:11:33;;;;;;;;;;;9.90;99.90;;;;;;4978766;28;19973;-87
2022/04/06 07:14:00;;;;;;;;;;;9.30;99.90;;;;;;4979509;28;19930;-86
2022/04/06 07:16:27;;;;;;;;;;;9.90;99.90;;;;;;4979660;28;20304;-87
2022/04/06 07:18:54;;;;;;;;;;;10.00;99.90;;;;;;4978975;28;19926;-86
2022/04/06 07:21:22;;;;;;;;;;;9.20;99.90;;;;;;4979152;28;20336;-85
2022/04/06 07:23:51;;;;;;;;;;;10.00;99.90;;;;;;4979118;28;19927;-87
2022/04/06 07:26:18;;;;;;;;;;;10.00;99.90;;;;;;4979270;28;19934;-85
2022/04/06 07:28:45;;;;;;;;;;;9.90;99.90;;;;;;4977643;28;19980;-85
2022/04/06 07:31:12;;;;;;;;;;;10.10;99.90;;;;;;4980246;28;19936;-86
2022/04/06 07:33:40;;;;;;;;;;;10.10;99.90;;;;;;4978257;28;19964;-87
2022/04/06 07:36:07;;;;;;;;;;;10.20;99.90;;;;;;4980199;28;19926;-87
2022/04/06 07:38:34;;;;;;;;;;;10.40;99.90;;;;;;4978294;28;19925;-85
2022/04/06 07:41:02;;;;;;;;;;;10.50;99.90;;;;;;4980781;28;20021;-86
2022/04/06 07:43:29;;;;;;;;;;;10.50;99.90;;;;;;4979744;28;19927;-85
2022/04/06 07:45:56;;;;;;;;;;;10.60;99.90;;;;;;4979342;28;19944;-83
2022/04/06 07:48:25;;;;;;;;;;;10.50;99.90;;;;;;4978643;28;19930;-84
2022/04/06 07:50:52;;;;;;;;;;;10.50;99.90;;;;;;4977753;28;19945;-85
2022/04/06 07:53:19;;;;;;;;;;;10.50;99.90;;;;;;4979083;28;20354;-87
2022/04/06 07:55:49;;;;;;;;;;;11.50;99.90;;;;;;4929852;28;19977;-86
2022/04/06 07:58:19;;;;;;;;;;;12.80;99.90;;;;;;4933895;28;19925;-86
2022/04/06 08:00:45;;;;;;;;;;;11.20;99.90;;;;;;4920834;28;20605;-83
2022/04/06 08:03:12;;;;;;;;;;;11.00;99.90;;;;;;4935634;28;19933;-85
2022/04/06 08:05:39;;;;;;;;;;;11.40;99.90;;;;;;4922776;28;19922;-87
2022/04/06 08:08:07;;;;;;;;;;;11.20;99.90;;;;;;4917546;28;19932;-86
2022/04/06 08:10:35;;;;;;;;;;;10.60;99.90;;;;;;4927984;28;19929;-87
2022/04/06 08:13:02;;;;;;;;;;;11.30;99.90;;;;;;4929678;28;19926;-87
2022/04/06 08:15:37;;;;;;;;;;;11.40;99.90;;;;;;4921475;28;20299;-87
2022/04/06 08:18:04;;;;;;;;;;;11.70;99.90;;;;;;4901477;28;20037;-86
2022/04/06 08:20:31;;;;;;;;;;;10.70;99.90;;;;;;4915879;28;20183;-86
2022/04/06 08:22:59;;;;;;;;;;;11.30;99.90;;;;;;4929144;28;20026;-86
2022/04/06 08:25:27;;;;;;;;;;;11.30;99.90;;;;;;4917801;28;20029;-86
2022/04/06 08:27:53;;;;;;;;;;;11.20;99.90;;;;;;4914893;28;19934;-86
2022/04/06 08:30:22;;;;;;;;;;;11.60;99.90;;;;;;4917996;28;20737;-87
2022/04/06 08:32:51;;;;;;;;;;;11.50;99.90;;;;;;4917468;28;19934;-86
2022/04/06 08:35:20;;;;;;;;;;;11.00;99.90;;;;;;4925281;28;19934;-86
2022/04/06 08:37:51;;;;;;;;;;;11.40;99.90;;;;;;4936236;28;19948;-85
2022/04/06 08:40:18;;;;;;;;;;;11.00;99.90;;;;;;4924495;28;19990;-86
2022/04/06 08:42:54;;;;;;;;;;;9.90;99.90;;;;;;4925474;28;19926;-86
2022/04/06 08:45:21;;;;;;;;;;;11.20;99.90;;;;;;4930739;28;20001;-86
2022/04/06 08:47:49;;;;;;;;;;;11.30;99.90;;;;;;4932107;28;19926;-85
2022/04/06 08:50:21;;;;;;;;;;;10.90;99.90;;;;;;4927599;28;19927;-86
2022/04/06 08:52:48;;;;;;;;;;;11.60;99.90;;;;;;4926045;28;19926;-86
2022/04/06 08:55:15;;;;;;;;;;;11.30;99.90;;;;;;4937788;28;20021;-85
2022/04/06 08:57:42;;;;;;;;;;;10.90;99.90;;;;;;4928474;28;20470;-86
2022/04/06 09:00:15;;;;;;;;;;;12.50;99.90;;;;;;4926902;28;19926;-85
2022/04/06 09:02:42;;;;;;;;;;;11.80;99.90;;;;;;4922395;28;19926;-86
2022/04/06 09:05:11;;;;;;;;;;;10.90;99.90;;;;;;4928218;28;20349;-84
2022/04/06 09:07:39;;;;;;;;;;;10.90;99.90;;;;;;4926457;28;20640;-86
2022/04/06 09:10:10;;;;;;;;;;;10.40;99.90;;;;;;4925852;28;19946;-84
2022/04/06 09:12:36;;;;;;;;;;;10.80;99.90;;;;;;4926984;28;19930;-84
2022/04/06 09:15:04;;;;;;;;;;;10.90;99.90;;;;;;4924632;28;20000;-85
2022/04/06 09:17:31;;;;;;;;;;;10.70;99.90;;;;;;4925842;28;20726;-83
2022/04/06 09:19:59;;;;;;;;;;;10.50;99.90;;;;;;4919577;28;20055;-82
2022/04/06 09:22:25;;;;;;;;;;;10.40;99.90;;;;;;4925773;28;19948;-86
2022/04/06 09:25:00;;;;;;;;;;;10.20;99.90;;;;;;4941217;28;19930;-86
2022/04/06 09:27:30;;;;;;;;;;;10.10;99.90;;;;;;4962636;28;19945;-87
2022/04/06 09:29:57;;;;;;;;;;;10.50;99.90;;;;;;4966095;28;19926;-88
2022/04/06 09:32:23;;;;;;;;;;;10.30;99.90;;;;;;4971436;28;19992;-85
2022/04/06 09:35:03;;;;;;;;;;;10.10;99.90;;;;;;4957724;28;20320;-87
2022/04/06 09:37:31;;;;;;;;;;;9.50;99.90;;;;;;4960824;28;20034;-86
2022/04/06 09:40:08;;;;;;;;;;;10.20;99.90;;;;;;4964247;28;19941;-86
2022/04/06 09:42:35;;;;;;;;;;;9.80;99.90;;;;;;4963252;28;19926;-84
2022/04/06 09:47:51;;;;;;;;;;;10.60;99.90;;;;;;4967268;28;19933;-84
2022/04/06 09:50:20;;;;;;;;;;;10.40;99.90;;;;;;4963512;28;20017;-86
2022/04/06 09:52:48;;;;;;;;;;;10.40;99.90;;;;;;4967770;28;20007;-86
2022/04/06 09:55:18;;;;;;;;;;;10.40;99.90;;;;;;4974276;28;19948;-88
2022/04/06 09:57:47;;;;;;;;;;;11.00;99.90;;;;;;4971344;28;19942;-84
2022/04/06 10:00:17;;;;;;;;;;;10.40;99.90;;;;;;4969334;28;19957;-86
2022/04/06 10:02:45;;;;;;;;;;;10.50;99.90;;;;;;4965494;28;19933;-87
2022/04/06 10:05:13;;;;;;;;;;;11.10;99.90;;;;;;4958863;28;19931;-87
2022/04/06 10:07:40;;;;;;;;;;;9.70;99.90;;;;;;4970721;28;19973;-86
2022/04/06 10:10:08;;;;;;;;;;;10.70;99.90;;;;;;4964605;28;19978;-86
2022/04/06 10:12:39;;;;;;;;;;;10.70;99.90;;;;;;4963603;28;19926;-87
2022/04/06 10:15:06;;;;;;;;;;;10.60;99.90;;;;;;4959843;28;20013;-87
2022/04/06 10:17:35;;;;;;;;;;;10.80;99.90;;;;;;4960488;28;20033;-86
2022/04/06 10:20:13;;;;;;;;;;;10.40;99.90;;;;;;4953851;28;19933;-86
2022/04/06 10:22:47;;;;;;;;;;;11.60;99.90;;;;;;4961840;28;19958;-87
2022/04/06 10:25:16;;;;;;;;;;;10.70;99.90;;;;;;4962128;28;19930;-86
2022/04/06 10:27:47;;;;;;;;;;;10.20;99.90;;;;;;4964318;28;19935;-87
2022/04/06 10:30:15;;;;;;;;;;;10.20;99.90;;;;;;4939672;28;20025;-87
2022/04/06 10:32:42;;;;;;;;;;;9.90;99.90;;;;;;4967515;28;19936;-86
2022/04/06 10:35:19;;;;;;;;;;;10.00;99.90;;;;;;4956121;28;20683;-86
2022/04/06 10:37:50;;;;;;;;;;;10.00;99.90;;;;;;4968780;28;19926;-86
2022/04/06 10:40:18;;;;;;;;;;;9.90;99.90;;;;;;4966933;28;20002;-86
2022/04/06 10:42:51;;;;;;;;;;;8.10;99.90;;;;;;4964847;28;19989;-86
2022/04/06 10:45:36;;;;;;;;;;;9.80;99.90;;;;;;4963395;28;19937;-86
2022/04/06 10:48:09;;;;;;;;;;;10.10;99.90;;;;;;4954485;28;19930;-86
2022/04/06 10:50:37;;;;;;;;;;;9.90;99.90;;;;;;4964684;28;20020;-87
2022/04/06 10:53:23;;;;;;;;;;;10.60;99.90;;;;;;4961951;28;19935;-88
2022/04/06 10:55:56;;;;;;;;;;;10.30;99.90;;;;;;4962126;28;20389;-87
2022/04/06 10:58:26;;;;;;;;;;;9.80;99.90;;;;;;4958339;28;19949;-87
2022/04/06 11:01:10;;;;;;;;;;;10.10;99.90;;;;;;5041992;23;19949;-87
2022/04/06 11:03:44;;;;;;;;;;;11.80;99.90;;;;;;4982602;28;19930;-87
2022/04/06 11:06:15;;;;;;;;;;;9.90;99.90;;;;;;4986111;28;19930;-87
2022/04/06 11:11:48;;;;;;;;;;;10.10;99.90;;;;;;4984528;28;19932;-88
2022/04/06 11:14:28;;;;;;;;;;;10.20;99.90;;;;;;4982480;28;20036;-86
2022/04/06 11:16:55;;;;;;;;;;;10.50;99.90;;;;;;4973039;28;20728;-86
2022/04/06 11:19:22;;;;;;;;;;;10.50;99.90;;;;;;4982252;28;19926;-88
2022/04/06 11:21:50;;;;;;;;;;;10.80;99.90;;;;;;4957729;28;20127;-87
2022/04/06 11:24:18;;;;;;;;;;;10.50;99.90;;;;;;4984095;28;19925;-88
2022/04/06 11:26:47;;;;;;;;;;;10.70;99.90;;;;;;4992442;28;19965;-87
2022/04/06 11:29:14;;;;;;;;;;;10.50;99.90;;;;;;4986912;28;20028;-87
2022/04/06 11:31:55;;;;;;;;;;;10.10;99.90;;;;;;4984945;28;19937;-87
2022/04/06 11:34:35;;;;;;;;;;;8.50;99.90;;;;;;4990655;28;19930;-87
2022/04/06 11:37:02;;;;;;;;;;;10.90;99.90;;;;;;4982588;28;20344;-87
2022/04/06 11:39:30;;;;;;;;;;;11.00;99.90;;;;;;4982962;28;19929;-87
2022/04/06 11:41:58;;;;;;;;;;;11.10;99.90;;;;;;4992738;28;19933;-87
2022/04/06 11:44:26;;;;;;;;;;;11.20;99.90;;;;;;4994695;28;19930;-87
2022/04/06 11:46:55;;;;;;;;;;;11.20;99.90;;;;;;4980199;28;19980;-86
2022/04/06 11:49:29;;;;;;;;;;;11.30;99.90;;;;;;4983038;28;19936;-86
2022/04/06 11:51:57;;;;;;;;;;;11.30;99.90;;;;;;4977942;28;19926;-85
2022/04/06 11:54:24;;;;;;;;;;;11.00;99.90;;;;;;4993123;28;20036;-86
2022/04/06 11:56:59;;;;;;;;;;;11.30;99.90;;;;;;4984358;28;19934;-87
2022/04/06 11:59:32;;;;;;;;;;;11.30;99.90;;;;;;4981283;28;20436;-86
2022/04/06 12:02:01;;;;;;;;;;;11.20;99.90;;;;;;4990906;28;19933;-88
2022/04/06 12:04:27;;;;;;;;;;;11.40;99.90;;;;;;4970874;28;19933;-86
2022/04/06 12:06:55;;;;;;;;;;;11.60;99.90;;;;;;4966032;28;19926;-87
2022/04/06 12:09:22;;;;;;;;;;;10.90;99.90;;;;;;4981139;28;20311;-86
2022/04/06 12:11:49;;;;;;;;;;;11.80;99.90;;;;;;4978436;28;19926;-85
2022/04/06 12:14:16;;;;;;;;;;;12.10;99.90;;;;;;4983935;28;19930;-86
2022/04/06 12:16:43;;;;;;;;;;;11.80;99.90;;;;;;4982957;28;19973;-85
2022/04/06 12:19:15;;;;;;;;;;;11.60;99.90;;;;;;4985898;28;20016;-85
2022/04/06 12:21:42;;;;;;;;;;;11.70;99.90;;;;;;4979272;28;19958;-85
2022/04/06 12:24:11;;;;;;;;;;;11.60;99.90;;;;;;4984050;28;20376;-85
2022/04/06 12:26:42;;;;;;;;;;;11.50;99.90;;;;;;4992427;28;19973;-85
2022/04/06 12:29:12;;;;;;;;;;;11.70;99.90;;;;;;4989111;28;19997;-84
2022/04/06 12:31:40;;;;;;;;;;;11.70;99.90;;;;;;4980546;28;19981;-85
2022/04/06 12:34:08;;;;;;;;;;;12.20;99.90;;;;;;4967665;28;19937;-85
2022/04/06 12:36:41;;;;;;;;;;;12.30;99.90;;;;;;4976108;28;20016;-84
2022/04/06 12:39:10;;;;;;;;;;;12.40;99.90;;;;;;4984105;28;19934;-84
2022/04/06 12:41:51;;;;;;;;;;;12.30;99.90;;;;;;4989396;28;19934;-85
2022/04/06 12:44:21;;;;;;;;;;;12.20;99.90;;;;;;4983051;28;19929;-86
2022/04/06 12:46:49;;;;;;;;;;;12.40;99.90;;;;;;4991603;28;19934;-85
2022/04/06 12:49:29;;;;;;;;;;;14.00;99.90;;;;;;4989335;28;19969;-86
2022/04/06 12:52:04;;;;;;;;;;;12.60;99.90;;;;;;4983207;28;19926;-83
2022/04/06 12:54:31;;;;;;;;;;;12.60;99.90;;;;;;4977581;28;19933;-86
2022/04/06 12:57:08;;;;;;;;;;;13.10;99.90;;;;;;4984040;28;19926;-86
2022/04/06 12:59:38;;;;;;;;;;;12.70;99.90;;;;;;4981224;28;19926;-84
2022/04/06 13:02:18;;;;;;;;;;;12.70;99.90;;;;;;4990116;28;20126;-84
2022/04/06 13:04:44;;;;;;;;;;;13.10;99.90;;;;;;4994343;28;19930;-84
2022/04/06 13:07:13;;;;;;;;;;;12.70;99.90;;;;;;4985447;28;20000;-85
2022/04/06 13:09:47;;;;;;;;;;;12.80;99.90;;;;;;4987702;28;20003;-84
2022/04/06 13:12:14;;;;;;;;;;;12.90;99.90;;;;;;4989217;28;19926;-84
2022/04/06 13:14:40;;;;;;;;;;;12.50;99.90;;;;;;4979707;28;20360;-86
2022/04/06 13:17:07;;;;;;;;;;;11.20;99.90;;;;;;4975275;28;20352;-84
2022/04/06 13:19:37;;;;;;;;;;;12.60;99.90;;;;;;4960917;28;20374;-85
2022/04/06 13:22:05;;;;;;;;;;;12.60;99.90;;;;;;4963359;28;19976;-85
2022/04/06 13:24:33;;;;;;;;;;;10.00;99.90;;;;;;4963309;28;19926;-87
2022/04/06 13:27:01;;;;;;;;;;;12.30;99.90;;;;;;4989320;28;19937;-86
2022/04/06 13:29:30;;;;;;;;;;;11.90;99.90;;;;;;4990118;28;19969;-86
2022/04/06 13:31:57;;;;;;;;;;;12.20;99.90;;;;;;4988645;28;19930;-87
2022/04/06 13:34:27;;;;;;;;;;;12.40;99.90;;;;;;4978607;28;20855;-86
2022/04/06 13:36:57;;;;;;;;;;;12.10;99.90;;;;;;4951251;28;19949;-86
2022/04/06 13:39:24;;;;;;;;;;;11.40;99.90;;;;;;4945946;28;19930;-86
2022/04/06 13:41:55;;;;;;;;;;;11.50;99.90;;;;;;4975173;28;19926;-86
2022/04/06 13:44:25;;;;;;;;;;;11.30;99.90;;;;;;4991582;28;20376;-87
2022/04/06 13:46:53;;;;;;;;;;;11.90;99.90;;;;;;4984820;28;19969;-87
2022/04/06 13:49:21;;;;;;;;;;;11.20;99.90;;;;;;4985280;28;19942;-85
2022/04/06 13:51:48;;;;;;;;;;;12.00;99.90;;;;;;4984746;28;19930;-86
2022/04/06 13:54:16;;;;;;;;;;;12.00;99.90;;;;;;4974764;28;20033;-86
2022/04/06 13:56:43;;;;;;;;;;;12.50;99.90;;;;;;4987414;28;19933;-86
2022/04/06 13:59:12;;;;;;;;;;;12.90;99.90;;;;;;4976484;28;19926;-87
2022/04/06 14:01:39;;;;;;;;;;;12.70;99.90;;;;;;4986062;28;20029;-87
2022/04/06 14:04:06;;;;;;;;;;;12.70;99.90;;;;;;4988412;28;19930;-86
2022/04/06 14:06:34;;;;;;;;;;;12.70;99.90;;;;;;4981333;28;20064;-86
2022/04/06 14:09:02;;;;;;;;;;;13.00;99.90;;;;;;4988930;28;19985;-87
2022/04/06 14:11:29;;;;;;;;;;;13.30;99.90;;;;;;4976668;28;20012;-86
2022/04/06 14:13:56;;;;;;;;;;;12.80;99.90;;;;;;4988749;28;19930;-87
2022/04/06 14:16:25;;;;;;;;;;;12.40;99.90;;;;;;4968155;28;19926;-87
2022/04/06 14:18:55;;;;;;;;;;;12.70;99.90;;;;;;4981040;28;19930;-86
2022/04/06 14:21:22;;;;;;;;;;;12.70;99.90;;;;;;4984096;28;19940;-86
2022/04/06 14:23:49;;;;;;;;;;;12.90;99.90;;;;;;4989753;28;20013;-85
2022/04/06 14:26:16;;;;;;;;;;;12.90;99.90;;;;;;4984719;28;19973;-86
2022/04/06 14:28:45;;;;;;;;;;;13.00;99.90;;;;;;4986696;28;20331;-86
2022/04/06 14:31:12;;;;;;;;;;;12.30;99.90;;;;;;4986404;28;19929;-86
2022/04/06 14:33:41;;;;;;;;;;;13.00;99.90;;;;;;4984114;28;19981;-87
2022/04/06 14:36:08;;;;;;;;;;;12.90;99.90;;;;;;4985162;28;20385;-85
2022/04/06 14:38:35;;;;;;;;;;;12.90;99.90;;;;;;4987860;28;20407;-86
2022/04/06 14:41:05;;;;;;;;;;;12.80;99.90;;;;;;4981733;28;19926;-86